aviador You're here:

VNKT Decoded Metar

KATHMANDU in NEPAL
Report Time2017-04-26 03:50:00
UTC Time2017-04-26 04:00:44
Flight Rules mvfr MVFR
Wind110° at 04 kt
W.Decomp.*RWY 02: 4.0 kt RCW
W.Rank110° ranks 13
Current wind is below 110° avg. (4.1)
Visibility6000 m
Phenomena:N/A
Clouds:Few 025 Hf
Expected CloudBase > 5,600 ft AGL from Temp-Dew spread
CeilingNone
Temp23°C (ISA +17)
Dew Point09°C (41% RH)
AAT21.3°C
QNH1014 hPa
Density Alt6,437 ft
Elevation4,386 ft
Report Wrong Elevation
Raw Report
VNKT 260350Z 11004KT 6000 FEW025 23/09 Q1014 NOSIG=

Extra information for VNKT:More info

Metar Taf Metar & Taf Last 4 Metars F.Rules Stats Wind Profile Meteogram Temp Stats Airport Information Weather charts Add Link Nearby VenuesMetar ALERT Operation Metar Decoded Social comments